sensor_id;sensor_type;location;lat;lon;timestamp;P1;durP1;ratioP1;P2;durP2;ratioP2
17251;SDS011;8742;51.716;8.790;2023-05-07T00:00:22;15.37;;;9.50;;
17251;SDS011;8742;51.716;8.790;2023-05-07T00:02:50;15.93;;;9.43;;
17251;SDS011;8742;51.716;8.790;2023-05-07T00:05:17;17.03;;;10.50;;
17251;SDS011;8742;51.716;8.790;2023-05-07T00:07:46;21.73;;;10.27;;
17251;SDS011;8742;51.716;8.790;2023-05-07T00:10:13;14.03;;;9.80;;
17251;SDS011;8742;51.716;8.790;2023-05-07T00:12:40;15.83;;;9.50;;
17251;SDS011;8742;51.716;8.790;2023-05-07T00:15:07;21.57;;;11.07;;
17251;SDS011;8742;51.716;8.790;2023-05-07T00:17:34;17.77;;;10.30;;
17251;SDS011;8742;51.716;8.790;2023-05-07T00:20:02;18.40;;;11.57;;
17251;SDS011;8742;51.716;8.790;2023-05-07T00:22:30;21.53;;;11.73;;
17251;SDS011;8742;51.716;8.790;2023-05-07T00:24:57;17.80;;;10.93;;
17251;SDS011;8742;51.716;8.790;2023-05-07T00:27:24;14.97;;;11.10;;
17251;SDS011;8742;51.716;8.790;2023-05-07T00:29:51;20.50;;;11.73;;
17251;SDS011;8742;51.716;8.790;2023-05-07T00:32:18;22.87;;;12.33;;
17251;SDS011;8742;51.716;8.790;2023-05-07T00:34:45;16.83;;;10.97;;
17251;SDS011;8742;51.716;8.790;2023-05-07T00:37:13;18.90;;;12.53;;
17251;SDS011;8742;51.716;8.790;2023-05-07T00:39:40;18.90;;;11.63;;
17251;SDS011;8742;51.716;8.790;2023-05-07T00:42:06;21.93;;;12.50;;
17251;SDS011;8742;51.716;8.790;2023-05-07T00:44:34;25.60;;;13.03;;
17251;SDS011;8742;51.716;8.790;2023-05-07T00:47:01;23.10;;;13.03;;
17251;SDS011;8742;51.716;8.790;2023-05-07T00:49:31;17.67;;;12.30;;
17251;SDS011;8742;51.716;8.790;2023-05-07T00:52:03;21.00;;;12.60;;
17251;SDS011;8742;51.716;8.790;2023-05-07T00:54:33;21.90;;;12.53;;
17251;SDS011;8742;51.716;8.790;2023-05-07T00:57:01;18.60;;;12.60;;
17251;SDS011;8742;51.716;8.790;2023-05-07T00:59:28;21.87;;;12.63;;
17251;SDS011;8742;51.716;8.790;2023-05-07T01:01:56;23.90;;;13.33;;
17251;SDS011;8742;51.716;8.790;2023-05-07T01:04:22;23.77;;;13.10;;
17251;SDS011;8742;51.716;8.790;2023-05-07T01:06:49;23.43;;;14.17;;
17251;SDS011;8742;51.716;8.790;2023-05-07T01:09:17;22.13;;;12.87;;
17251;SDS011;8742;51.716;8.790;2023-05-07T01:11:47;24.23;;;13.63;;
17251;SDS011;8742;51.716;8.790;2023-05-07T01:14:15;21.50;;;14.70;;
17251;SDS011;8742;51.716;8.790;2023-05-07T01:16:43;31.03;;;14.37;;
17251;SDS011;8742;51.716;8.790;2023-05-07T01:19:09;27.37;;;15.00;;
17251;SDS011;8742;51.716;8.790;2023-05-07T01:21:39;24.57;;;15.40;;
17251;SDS011;8742;51.716;8.790;2023-05-07T01:24:12;21.57;;;13.53;;
17251;SDS011;8742;51.716;8.790;2023-05-07T01:26:39;24.10;;;13.73;;
17251;SDS011;8742;51.716;8.790;2023-05-07T01:29:06;26.43;;;14.37;;
17251;SDS011;8742;51.716;8.790;2023-05-07T01:31:33;25.50;;;14.53;;
17251;SDS011;8742;51.716;8.790;2023-05-07T01:34:02;28.43;;;15.77;;
17251;SDS011;8742;51.716;8.790;2023-05-07T01:36:31;24.93;;;14.87;;
17251;SDS011;8742;51.716;8.790;2023-05-07T01:38:58;26.33;;;15.43;;
17251;SDS011;8742;51.716;8.790;2023-05-07T01:41:27;21.50;;;14.20;;
17251;SDS011;8742;51.716;8.790;2023-05-07T01:43:54;21.50;;;14.47;;
17251;SDS011;8742;51.716;8.790;2023-05-07T01:46:22;26.30;;;14.40;;
17251;SDS011;8742;51.716;8.790;2023-05-07T01:48:50;26.83;;;15.10;;
17251;SDS011;8742;51.716;8.790;2023-05-07T01:51:17;26.20;;;15.33;;
17251;SDS011;8742;51.716;8.790;2023-05-07T01:53:44;28.13;;;14.60;;
17251;SDS011;8742;51.716;8.790;2023-05-07T01:56:15;22.27;;;13.83;;
17251;SDS011;8742;51.716;8.790;2023-05-07T01:58:44;25.47;;;14.90;;
17251;SDS011;8742;51.716;8.790;2023-05-07T02:01:11;20.50;;;13.77;;
17251;SDS011;8742;51.716;8.790;2023-05-07T02:03:38;29.10;;;14.80;;
17251;SDS011;8742;51.716;8.790;2023-05-07T02:06:05;25.93;;;15.27;;
17251;SDS011;8742;51.716;8.790;2023-05-07T02:08:32;25.70;;;15.77;;
17251;SDS011;8742;51.716;8.790;2023-05-07T02:10:59;26.60;;;15.40;;
17251;SDS011;8742;51.716;8.790;2023-05-07T02:13:26;25.37;;;15.13;;
17251;SDS011;8742;51.716;8.790;2023-05-07T02:15:56;25.00;;;16.13;;
17251;SDS011;8742;51.716;8.790;2023-05-07T02:18:23;28.93;;;15.73;;
17251;SDS011;8742;51.716;8.790;2023-05-07T02:20:50;25.90;;;14.80;;
17251;SDS011;8742;51.716;8.790;2023-05-07T02:23:17;24.03;;;14.93;;
17251;SDS011;8742;51.716;8.790;2023-05-07T02:25:43;26.83;;;16.67;;
17251;SDS011;8742;51.716;8.790;2023-05-07T02:28:11;25.97;;;15.63;;
17251;SDS011;8742;51.716;8.790;2023-05-07T02:30:37;28.57;;;16.37;;
17251;SDS011;8742;51.716;8.790;2023-05-07T02:33:06;26.43;;;15.27;;
17251;SDS011;8742;51.716;8.790;2023-05-07T02:35:33;27.87;;;15.83;;
17251;SDS011;8742;51.716;8.790;2023-05-07T02:38:00;25.13;;;16.00;;
17251;SDS011;8742;51.716;8.790;2023-05-07T02:40:27;27.57;;;15.90;;
17251;SDS011;8742;51.716;8.790;2023-05-07T02:42:54;26.80;;;15.47;;
17251;SDS011;8742;51.716;8.790;2023-05-07T02:45:21;25.60;;;15.67;;
17251;SDS011;8742;51.716;8.790;2023-05-07T02:47:47;29.30;;;17.10;;
17251;SDS011;8742;51.716;8.790;2023-05-07T02:50:16;29.60;;;17.23;;
17251;SDS011;8742;51.716;8.790;2023-05-07T02:52:42;27.33;;;16.50;;
17251;SDS011;8742;51.716;8.790;2023-05-07T02:55:09;25.60;;;15.97;;
17251;SDS011;8742;51.716;8.790;2023-05-07T02:57:36;27.00;;;16.37;;
17251;SDS011;8742;51.716;8.790;2023-05-07T03:00:10;29.23;;;16.37;;
17251;SDS011;8742;51.716;8.790;2023-05-07T03:02:38;27.17;;;16.73;;
17251;SDS011;8742;51.716;8.790;2023-05-07T03:05:05;27.80;;;16.77;;
17251;SDS011;8742;51.716;8.790;2023-05-07T03:07:34;30.97;;;16.90;;
17251;SDS011;8742;51.716;8.790;2023-05-07T03:10:01;28.37;;;16.60;;
17251;SDS011;8742;51.716;8.790;2023-05-07T03:12:27;30.27;;;16.83;;
17251;SDS011;8742;51.716;8.790;2023-05-07T03:14:54;29.07;;;17.10;;
17251;SDS011;8742;51.716;8.790;2023-05-07T03:17:21;28.43;;;16.97;;
17251;SDS011;8742;51.716;8.790;2023-05-07T03:19:48;32.57;;;17.73;;
17251;SDS011;8742;51.716;8.790;2023-05-07T03:22:15;35.47;;;18.07;;
17251;SDS011;8742;51.716;8.790;2023-05-07T03:24:43;32.07;;;18.00;;
17251;SDS011;8742;51.716;8.790;2023-05-07T03:27:10;34.23;;;17.93;;
17251;SDS011;8742;51.716;8.790;2023-05-07T03:29:36;31.20;;;18.77;;
17251;SDS011;8742;51.716;8.790;2023-05-07T03:32:03;32.57;;;18.20;;
17251;SDS011;8742;51.716;8.790;2023-05-07T03:34:30;36.23;;;19.67;;
17251;SDS011;8742;51.716;8.790;2023-05-07T03:36:57;36.63;;;19.67;;
17251;SDS011;8742;51.716;8.790;2023-05-07T03:39:24;33.87;;;19.10;;
17251;SDS011;8742;51.716;8.790;2023-05-07T03:41:52;35.83;;;18.37;;
17251;SDS011;8742;51.716;8.790;2023-05-07T03:44:19;35.10;;;20.07;;
17251;SDS011;8742;51.716;8.790;2023-05-07T03:46:46;33.73;;;18.33;;
17251;SDS011;8742;51.716;8.790;2023-05-07T03:49:13;35.60;;;19.80;;
17251;SDS011;8742;51.716;8.790;2023-05-07T03:51:39;34.47;;;20.33;;
17251;SDS011;8742;51.716;8.790;2023-05-07T03:54:06;32.27;;;20.17;;
17251;SDS011;8742;51.716;8.790;2023-05-07T03:56:33;36.23;;;20.73;;
17251;SDS011;8742;51.716;8.790;2023-05-07T03:59:01;41.73;;;21.00;;
17251;SDS011;8742;51.716;8.790;2023-05-07T04:01:28;38.57;;;20.57;;
17251;SDS011;8742;51.716;8.790;2023-05-07T04:03:55;39.03;;;19.97;;
17251;SDS011;8742;51.716;8.790;2023-05-07T04:06:22;33.93;;;21.37;;
17251;SDS011;8742;51.716;8.790;2023-05-07T04:08:49;36.93;;;19.47;;
17251;SDS011;8742;51.716;8.790;2023-05-07T04:11:16;32.87;;;19.87;;
17251;SDS011;8742;51.716;8.790;2023-05-07T04:13:42;40.27;;;20.30;;
17251;SDS011;8742;51.716;8.790;2023-05-07T04:16:11;38.80;;;21.00;;
17251;SDS011;8742;51.716;8.790;2023-05-07T04:18:37;37.70;;;20.50;;
17251;SDS011;8742;51.716;8.790;2023-05-07T04:21:04;35.47;;;20.43;;
17251;SDS011;8742;51.716;8.790;2023-05-07T04:23:31;37.87;;;21.13;;
17251;SDS011;8742;51.716;8.790;2023-05-07T04:25:58;35.70;;;20.73;;
17251;SDS011;8742;51.716;8.790;2023-05-07T04:28:25;37.60;;;20.43;;
17251;SDS011;8742;51.716;8.790;2023-05-07T04:30:52;35.40;;;20.40;;
17251;SDS011;8742;51.716;8.790;2023-05-07T04:33:20;37.07;;;20.93;;
17251;SDS011;8742;51.716;8.790;2023-05-07T04:35:47;40.70;;;20.33;;
17251;SDS011;8742;51.716;8.790;2023-05-07T04:38:14;40.70;;;20.80;;
17251;SDS011;8742;51.716;8.790;2023-05-07T04:40:41;38.33;;;20.60;;
17251;SDS011;8742;51.716;8.790;2023-05-07T04:43:08;33.40;;;20.10;;
17251;SDS011;8742;51.716;8.790;2023-05-07T04:45:35;36.20;;;20.33;;
17251;SDS011;8742;51.716;8.790;2023-05-07T04:48:02;38.77;;;20.87;;
17251;SDS011;8742;51.716;8.790;2023-05-07T04:50:31;30.97;;;17.93;;
17251;SDS011;8742;51.716;8.790;2023-05-07T04:52:58;34.50;;;19.57;;
17251;SDS011;8742;51.716;8.790;2023-05-07T04:55:25;35.40;;;18.80;;
17251;SDS011;8742;51.716;8.790;2023-05-07T04:57:52;36.50;;;19.70;;
17251;SDS011;8742;51.716;8.790;2023-05-07T05:00:19;37.23;;;19.87;;
17251;SDS011;8742;51.716;8.790;2023-05-07T05:02:46;34.97;;;19.20;;
17251;SDS011;8742;51.716;8.790;2023-05-07T05:05:13;35.77;;;18.63;;
17251;SDS011;8742;51.716;8.790;2023-05-07T05:07:41;37.83;;;18.67;;
17251;SDS011;8742;51.716;8.790;2023-05-07T05:10:08;34.33;;;19.03;;
17251;SDS011;8742;51.716;8.790;2023-05-07T05:12:35;33.70;;;19.43;;
17251;SDS011;8742;51.716;8.790;2023-05-07T05:15:02;30.67;;;19.10;;
17251;SDS011;8742;51.716;8.790;2023-05-07T05:17:29;35.90;;;18.43;;
17251;SDS011;8742;51.716;8.790;2023-05-07T05:19:56;34.17;;;18.23;;
17251;SDS011;8742;51.716;8.790;2023-05-07T05:22:22;31.97;;;18.13;;
17251;SDS011;8742;51.716;8.790;2023-05-07T05:24:52;34.07;;;18.77;;
17251;SDS011;8742;51.716;8.790;2023-05-07T05:27:18;33.27;;;18.50;;
17251;SDS011;8742;51.716;8.790;2023-05-07T05:29:45;31.07;;;18.13;;
17251;SDS011;8742;51.716;8.790;2023-05-07T05:32:12;31.73;;;17.30;;
17251;SDS011;8742;51.716;8.790;2023-05-07T05:34:39;31.37;;;17.30;;
17251;SDS011;8742;51.716;8.790;2023-05-07T05:37:05;30.60;;;17.83;;
17251;SDS011;8742;51.716;8.790;2023-05-07T05:39:32;31.97;;;17.97;;
17251;SDS011;8742;51.716;8.790;2023-05-07T05:42:01;30.53;;;16.47;;
17251;SDS011;8742;51.716;8.790;2023-05-07T05:44:28;24.70;;;15.27;;
17251;SDS011;8742;51.716;8.790;2023-05-07T05:46:54;34.47;;;17.70;;
17251;SDS011;8742;51.716;8.790;2023-05-07T05:49:22;31.93;;;16.90;;
17251;SDS011;8742;51.716;8.790;2023-05-07T05:51:49;31.67;;;16.13;;
17251;SDS011;8742;51.716;8.790;2023-05-07T05:54:16;28.23;;;16.83;;
17251;SDS011;8742;51.716;8.790;2023-05-07T05:56:43;29.43;;;16.63;;
17251;SDS011;8742;51.716;8.790;2023-05-07T05:59:11;28.57;;;14.37;;
17251;SDS011;8742;51.716;8.790;2023-05-07T06:01:38;30.30;;;16.67;;
17251;SDS011;8742;51.716;8.790;2023-05-07T06:04:05;26.10;;;16.47;;
17251;SDS011;8742;51.716;8.790;2023-05-07T06:06:32;25.47;;;13.43;;
17251;SDS011;8742;51.716;8.790;2023-05-07T06:08:58;27.83;;;16.07;;
17251;SDS011;8742;51.716;8.790;2023-05-07T06:11:25;29.40;;;15.07;;
17251;SDS011;8742;51.716;8.790;2023-05-07T06:13:52;23.80;;;15.37;;
17251;SDS011;8742;51.716;8.790;2023-05-07T06:16:20;26.37;;;15.60;;
17251;SDS011;8742;51.716;8.790;2023-05-07T06:18:47;25.20;;;14.83;;
17251;SDS011;8742;51.716;8.790;2023-05-07T06:21:14;24.13;;;12.43;;
17251;SDS011;8742;51.716;8.790;2023-05-07T06:23:41;25.93;;;15.17;;
17251;SDS011;8742;51.716;8.790;2023-05-07T06:26:07;25.00;;;14.10;;
17251;SDS011;8742;51.716;8.790;2023-05-07T06:28:34;25.33;;;15.50;;
17251;SDS011;8742;51.716;8.790;2023-05-07T06:31:11;24.03;;;14.43;;
17251;SDS011;8742;51.716;8.790;2023-05-07T06:33:40;26.80;;;14.30;;
17251;SDS011;8742;51.716;8.790;2023-05-07T06:36:07;25.00;;;13.37;;
17251;SDS011;8742;51.716;8.790;2023-05-07T06:38:34;24.43;;;13.90;;
17251;SDS011;8742;51.716;8.790;2023-05-07T06:41:01;27.57;;;13.70;;
17251;SDS011;8742;51.716;8.790;2023-05-07T06:43:28;21.90;;;14.07;;
17251;SDS011;8742;51.716;8.790;2023-05-07T06:45:54;24.67;;;13.77;;
17251;SDS011;8742;51.716;8.790;2023-05-07T06:48:21;19.63;;;12.40;;
17251;SDS011;8742;51.716;8.790;2023-05-07T06:50:49;21.30;;;11.60;;
17251;SDS011;8742;51.716;8.790;2023-05-07T06:53:16;28.00;;;12.60;;
17251;SDS011;8742;51.716;8.790;2023-05-07T06:55:43;21.80;;;12.83;;
17251;SDS011;8742;51.716;8.790;2023-05-07T06:58:10;19.80;;;12.17;;
17251;SDS011;8742;51.716;8.790;2023-05-07T07:00:37;20.90;;;13.00;;
17251;SDS011;8742;51.716;8.790;2023-05-07T07:03:04;21.50;;;12.97;;
17251;SDS011;8742;51.716;8.790;2023-05-07T07:05:30;20.57;;;12.60;;
17251;SDS011;8742;51.716;8.790;2023-05-07T07:07:58;19.57;;;12.50;;
17251;SDS011;8742;51.716;8.790;2023-05-07T07:10:25;19.57;;;11.77;;
17251;SDS011;8742;51.716;8.790;2023-05-07T07:12:52;18.93;;;11.90;;
17251;SDS011;8742;51.716;8.790;2023-05-07T07:15:19;18.13;;;11.37;;
17251;SDS011;8742;51.716;8.790;2023-05-07T07:17:47;20.17;;;11.20;;
17251;SDS011;8742;51.716;8.790;2023-05-07T07:20:14;18.57;;;11.07;;
17251;SDS011;8742;51.716;8.790;2023-05-07T07:22:41;19.03;;;11.90;;
17251;SDS011;8742;51.716;8.790;2023-05-07T07:25:09;15.83;;;9.17;;
17251;SDS011;8742;51.716;8.790;2023-05-07T07:27:37;17.67;;;10.80;;
17251;SDS011;8742;51.716;8.790;2023-05-07T07:30:05;21.47;;;11.33;;
17251;SDS011;8742;51.716;8.790;2023-05-07T07:32:33;15.63;;;10.80;;
17251;SDS011;8742;51.716;8.790;2023-05-07T07:35:00;15.37;;;10.00;;
17251;SDS011;8742;51.716;8.790;2023-05-07T07:37:27;18.13;;;10.70;;
17251;SDS011;8742;51.716;8.790;2023-05-07T07:39:54;15.10;;;10.33;;
17251;SDS011;8742;51.716;8.790;2023-05-07T07:42:22;15.47;;;10.50;;
17251;SDS011;8742;51.716;8.790;2023-05-07T07:44:49;12.17;;;9.70;;
17251;SDS011;8742;51.716;8.790;2023-05-07T07:47:16;15.20;;;9.83;;
17251;SDS011;8742;51.716;8.790;2023-05-07T07:49:43;12.73;;;8.80;;
17251;SDS011;8742;51.716;8.790;2023-05-07T07:52:10;13.77;;;9.73;;
17251;SDS011;8742;51.716;8.790;2023-05-07T07:54:36;16.50;;;10.00;;
17251;SDS011;8742;51.716;8.790;2023-05-07T07:57:03;16.27;;;9.10;;
17251;SDS011;8742;51.716;8.790;2023-05-07T07:59:32;18.13;;;9.80;;
17251;SDS011;8742;51.716;8.790;2023-05-07T08:01:59;15.47;;;9.40;;
17251;SDS011;8742;51.716;8.790;2023-05-07T08:04:25;15.10;;;9.03;;
17251;SDS011;8742;51.716;8.790;2023-05-07T08:06:52;15.63;;;9.63;;
17251;SDS011;8742;51.716;8.790;2023-05-07T08:09:21;12.47;;;9.33;;
17251;SDS011;8742;51.716;8.790;2023-05-07T08:11:47;15.27;;;8.70;;
17251;SDS011;8742;51.716;8.790;2023-05-07T08:14:14;12.93;;;9.30;;
17251;SDS011;8742;51.716;8.790;2023-05-07T08:16:43;12.20;;;9.10;;
17251;SDS011;8742;51.716;8.790;2023-05-07T08:19:10;15.63;;;9.70;;
17251;SDS011;8742;51.716;8.790;2023-05-07T08:21:38;13.47;;;8.73;;
17251;SDS011;8742;51.716;8.790;2023-05-07T08:24:05;16.13;;;9.43;;
17251;SDS011;8742;51.716;8.790;2023-05-07T08:26:32;14.73;;;9.00;;
17251;SDS011;8742;51.716;8.790;2023-05-07T08:29:00;16.20;;;10.23;;
17251;SDS011;8742;51.716;8.790;2023-05-07T08:31:27;16.00;;;9.57;;
17251;SDS011;8742;51.716;8.790;2023-05-07T08:33:56;23.03;;;10.60;;
17251;SDS011;8742;51.716;8.790;2023-05-07T08:36:23;16.93;;;9.80;;
17251;SDS011;8742;51.716;8.790;2023-05-07T08:38:50;15.20;;;9.67;;
17251;SDS011;8742;51.716;8.790;2023-05-07T08:41:17;14.63;;;8.97;;
17251;SDS011;8742;51.716;8.790;2023-05-07T08:43:46;14.67;;;9.43;;
17251;SDS011;8742;51.716;8.790;2023-05-07T08:46:16;16.97;;;9.93;;
17251;SDS011;8742;51.716;8.790;2023-05-07T08:48:44;14.47;;;10.30;;
17251;SDS011;8742;51.716;8.790;2023-05-07T08:51:15;18.23;;;9.57;;
17251;SDS011;8742;51.716;8.790;2023-05-07T08:53:43;13.03;;;9.43;;
17251;SDS011;8742;51.716;8.790;2023-05-07T08:56:13;13.57;;;9.20;;
17251;SDS011;8742;51.716;8.790;2023-05-07T08:58:40;14.50;;;9.40;;
17251;SDS011;8742;51.716;8.790;2023-05-07T09:01:09;11.93;;;9.53;;
17251;SDS011;8742;51.716;8.790;2023-05-07T09:03:39;15.50;;;9.60;;
17251;SDS011;8742;51.716;8.790;2023-05-07T09:06:06;14.80;;;9.23;;
17251;SDS011;8742;51.716;8.790;2023-05-07T09:08:34;13.07;;;9.33;;
17251;SDS011;8742;51.716;8.790;2023-05-07T09:11:02;12.30;;;9.20;;
17251;SDS011;8742;51.716;8.790;2023-05-07T09:13:29;13.83;;;9.63;;
17251;SDS011;8742;51.716;8.790;2023-05-07T09:15:56;15.13;;;9.43;;
17251;SDS011;8742;51.716;8.790;2023-05-07T09:18:23;14.63;;;9.50;;
17251;SDS011;8742;51.716;8.790;2023-05-07T09:20:50;13.57;;;9.20;;
17251;SDS011;8742;51.716;8.790;2023-05-07T09:23:17;11.83;;;9.33;;
17251;SDS011;8742;51.716;8.790;2023-05-07T09:25:45;13.27;;;9.20;;
17251;SDS011;8742;51.716;8.790;2023-05-07T09:28:12;14.43;;;9.50;;
17251;SDS011;8742;51.716;8.790;2023-05-07T09:30:39;12.03;;;8.63;;
17251;SDS011;8742;51.716;8.790;2023-05-07T09:33:06;14.23;;;9.00;;
17251;SDS011;8742;51.716;8.790;2023-05-07T09:35:32;13.10;;;9.30;;
17251;SDS011;8742;51.716;8.790;2023-05-07T09:38:00;13.83;;;10.03;;
17251;SDS011;8742;51.716;8.790;2023-05-07T09:40:28;12.37;;;9.10;;
17251;SDS011;8742;51.716;8.790;2023-05-07T09:43:07;15.23;;;9.03;;
17251;SDS011;8742;51.716;8.790;2023-05-07T09:45:35;13.33;;;9.33;;
17251;SDS011;8742;51.716;8.790;2023-05-07T09:48:03;14.23;;;9.33;;
17251;SDS011;8742;51.716;8.790;2023-05-07T09:50:32;12.93;;;9.33;;
17251;SDS011;8742;51.716;8.790;2023-05-07T09:53:03;13.80;;;8.93;;
17251;SDS011;8742;51.716;8.790;2023-05-07T09:55:30;11.20;;;8.57;;
17251;SDS011;8742;51.716;8.790;2023-05-07T09:57:58;11.67;;;9.33;;
17251;SDS011;8742;51.716;8.790;2023-05-07T10:00:27;11.57;;;8.67;;
17251;SDS011;8742;51.716;8.790;2023-05-07T10:02:56;12.20;;;8.77;;
17251;SDS011;8742;51.716;8.790;2023-05-07T10:05:24;12.53;;;8.70;;
17251;SDS011;8742;51.716;8.790;2023-05-07T10:07:52;11.43;;;9.23;;
17251;SDS011;8742;51.716;8.790;2023-05-07T10:10:20;12.07;;;8.57;;
17251;SDS011;8742;51.716;8.790;2023-05-07T10:12:48;11.60;;;8.30;;
17251;SDS011;8742;51.716;8.790;2023-05-07T10:15:17;12.23;;;8.57;;
17251;SDS011;8742;51.716;8.790;2023-05-07T10:17:45;10.87;;;7.90;;
17251;SDS011;8742;51.716;8.790;2023-05-07T10:20:14;11.40;;;8.07;;
17251;SDS011;8742;51.716;8.790;2023-05-07T10:22:41;10.70;;;8.17;;
17251;SDS011;8742;51.716;8.790;2023-05-07T10:25:13;11.63;;;8.50;;
17251;SDS011;8742;51.716;8.790;2023-05-07T10:27:43;12.03;;;8.33;;
17251;SDS011;8742;51.716;8.790;2023-05-07T10:30:15;12.03;;;8.43;;
17251;SDS011;8742;51.716;8.790;2023-05-07T10:32:49;11.60;;;8.27;;
17251;SDS011;8742;51.716;8.790;2023-05-07T10:35:21;10.23;;;7.90;;
17251;SDS011;8742;51.716;8.790;2023-05-07T10:37:51;10.60;;;8.07;;
17251;SDS011;8742;51.716;8.790;2023-05-07T10:40:19;13.57;;;7.57;;
17251;SDS011;8742;51.716;8.790;2023-05-07T10:42:53;9.40;;;7.33;;
17251;SDS011;8742;51.716;8.790;2023-05-07T10:45:23;9.30;;;7.47;;
17251;SDS011;8742;51.716;8.790;2023-05-07T10:48:06;10.90;;;7.67;;
17251;SDS011;8742;51.716;8.790;2023-05-07T10:50:34;12.20;;;8.23;;
17251;SDS011;8742;51.716;8.790;2023-05-07T10:53:20;11.23;;;7.37;;
17251;SDS011;8742;51.716;8.790;2023-05-07T10:55:51;7.83;;;6.83;;
17251;SDS011;8742;51.716;8.790;2023-05-07T10:58:33;11.17;;;7.10;;
17251;SDS011;8742;51.716;8.790;2023-05-07T11:01:03;9.67;;;7.50;;
17251;SDS011;8742;51.716;8.790;2023-05-07T11:03:30;9.97;;;7.53;;
17251;SDS011;8742;51.716;8.790;2023-05-07T11:06:10;9.00;;;6.77;;
17251;SDS011;8742;51.716;8.790;2023-05-07T11:08:54;8.10;;;5.87;;
17251;SDS011;8742;51.716;8.790;2023-05-07T11:11:36;10.33;;;6.27;;
17251;SDS011;8742;51.716;8.790;2023-05-07T11:14:10;9.30;;;7.07;;
17251;SDS011;8742;51.716;8.790;2023-05-07T11:16:39;8.30;;;6.50;;
17251;SDS011;8742;51.716;8.790;2023-05-07T11:19:08;7.47;;;6.20;;
17251;SDS011;8742;51.716;8.790;2023-05-07T11:21:35;8.50;;;6.27;;
17251;SDS011;8742;51.716;8.790;2023-05-07T11:24:03;7.10;;;5.70;;
17251;SDS011;8742;51.716;8.790;2023-05-07T11:26:40;7.83;;;6.03;;
17251;SDS011;8742;51.716;8.790;2023-05-07T11:29:12;8.37;;;6.07;;
17251;SDS011;8742;51.716;8.790;2023-05-07T11:31:42;6.85;;;5.35;;
17251;SDS011;8742;51.716;8.790;2023-05-07T11:34:09;7.07;;;5.22;;
17251;SDS011;8742;51.716;8.790;2023-05-07T11:36:41;10.02;;;5.15;;
17251;SDS011;8742;51.716;8.790;2023-05-07T11:39:28;5.65;;;4.97;;
17251;SDS011;8742;51.716;8.790;2023-05-07T11:41:58;7.32;;;5.75;;
17251;SDS011;8742;51.716;8.790;2023-05-07T11:44:25;8.27;;;5.57;;
17251;SDS011;8742;51.716;8.790;2023-05-07T11:46:53;6.35;;;5.18;;
17251;SDS011;8742;51.716;8.790;2023-05-07T11:49:20;5.45;;;4.72;;
17251;SDS011;8742;51.716;8.790;2023-05-07T11:51:46;6.28;;;5.15;;
17251;SDS011;8742;51.716;8.790;2023-05-07T11:54:15;8.68;;;4.95;;
17251;SDS011;8742;51.716;8.790;2023-05-07T11:56:43;6.97;;;5.05;;
17251;SDS011;8742;51.716;8.790;2023-05-07T11:59:11;5.15;;;4.60;;
17251;SDS011;8742;51.716;8.790;2023-05-07T12:01:38;5.55;;;4.40;;
17251;SDS011;8742;51.716;8.790;2023-05-07T12:04:06;5.03;;;4.15;;
17251;SDS011;8742;51.716;8.790;2023-05-07T12:06:35;6.28;;;4.82;;
17251;SDS011;8742;51.716;8.790;2023-05-07T12:09:03;5.10;;;4.60;;
17251;SDS011;8742;51.716;8.790;2023-05-07T12:11:32;4.53;;;4.10;;
17251;SDS011;8742;51.716;8.790;2023-05-07T12:14:00;5.18;;;4.00;;
17251;SDS011;8742;51.716;8.790;2023-05-07T12:16:26;6.05;;;4.70;;
17251;SDS011;8742;51.716;8.790;2023-05-07T12:18:54;7.15;;;4.43;;
17251;SDS011;8742;51.716;8.790;2023-05-07T12:21:25;4.25;;;3.85;;
17251;SDS011;8742;51.716;8.790;2023-05-07T12:23:52;4.72;;;4.07;;
17251;SDS011;8742;51.716;8.790;2023-05-07T12:26:19;6.88;;;4.60;;
17251;SDS011;8742;51.716;8.790;2023-05-07T12:28:46;9.10;;;4.63;;
17251;SDS011;8742;51.716;8.790;2023-05-07T12:31:13;4.25;;;3.80;;
17251;SDS011;8742;51.716;8.790;2023-05-07T12:33:40;6.13;;;4.20;;
17251;SDS011;8742;51.716;8.790;2023-05-07T12:36:08;4.97;;;3.95;;
17251;SDS011;8742;51.716;8.790;2023-05-07T12:38:37;5.03;;;4.38;;
17251;SDS011;8742;51.716;8.790;2023-05-07T12:41:05;5.30;;;4.38;;
17251;SDS011;8742;51.716;8.790;2023-05-07T12:43:33;4.07;;;3.63;;
17251;SDS011;8742;51.716;8.790;2023-05-07T12:46:01;4.60;;;4.07;;
17251;SDS011;8742;51.716;8.790;2023-05-07T12:48:31;5.13;;;4.07;;
17251;SDS011;8742;51.716;8.790;2023-05-07T12:50:59;4.53;;;3.65;;
17251;SDS011;8742;51.716;8.790;2023-05-07T12:53:26;5.18;;;4.28;;
17251;SDS011;8742;51.716;8.790;2023-05-07T12:55:56;4.88;;;3.70;;
17251;SDS011;8742;51.716;8.790;2023-05-07T12:58:25;4.35;;;3.92;;
17251;SDS011;8742;51.716;8.790;2023-05-07T13:00:53;5.68;;;3.97;;
17251;SDS011;8742;51.716;8.790;2023-05-07T13:03:23;4.15;;;3.70;;
17251;SDS011;8742;51.716;8.790;2023-05-07T13:05:51;5.22;;;3.65;;
17251;SDS011;8742;51.716;8.790;2023-05-07T13:08:28;6.97;;;4.00;;
17251;SDS011;8742;51.716;8.790;2023-05-07T13:10:59;4.55;;;3.88;;
17251;SDS011;8742;51.716;8.790;2023-05-07T13:13:28;6.13;;;4.22;;
17251;SDS011;8742;51.716;8.790;2023-05-07T13:15:55;5.45;;;3.95;;
17251;SDS011;8742;51.716;8.790;2023-05-07T13:18:22;8.65;;;4.30;;
17251;SDS011;8742;51.716;8.790;2023-05-07T13:20:50;5.75;;;4.40;;
17251;SDS011;8742;51.716;8.790;2023-05-07T13:23:17;5.07;;;4.43;;
17251;SDS011;8742;51.716;8.790;2023-05-07T13:25:44;5.78;;;5.00;;
17251;SDS011;8742;51.716;8.790;2023-05-07T13:28:12;5.20;;;4.18;;
17251;SDS011;8742;51.716;8.790;2023-05-07T13:30:39;6.28;;;4.82;;
17251;SDS011;8742;51.716;8.790;2023-05-07T13:33:06;6.95;;;4.85;;
17251;SDS011;8742;51.716;8.790;2023-05-07T13:35:33;8.60;;;5.53;;
17251;SDS011;8742;51.716;8.790;2023-05-07T13:38:00;6.82;;;5.78;;
17251;SDS011;8742;51.716;8.790;2023-05-07T13:40:27;14.15;;;5.75;;
17251;SDS011;8742;51.716;8.790;2023-05-07T13:42:56;5.82;;;5.22;;
17251;SDS011;8742;51.716;8.790;2023-05-07T13:45:24;6.80;;;5.75;;
17251;SDS011;8742;51.716;8.790;2023-05-07T13:47:51;7.13;;;5.60;;
17251;SDS011;8742;51.716;8.790;2023-05-07T13:50:18;10.27;;;6.10;;
17251;SDS011;8742;51.716;8.790;2023-05-07T13:52:45;9.13;;;6.68;;
17251;SDS011;8742;51.716;8.790;2023-05-07T13:55:15;7.10;;;6.25;;
17251;SDS011;8742;51.716;8.790;2023-05-07T13:57:42;9.25;;;6.10;;
17251;SDS011;8742;51.716;8.790;2023-05-07T14:00:10;9.82;;;6.15;;
17251;SDS011;8742;51.716;8.790;2023-05-07T14:02:39;11.57;;;6.93;;
17251;SDS011;8742;51.716;8.790;2023-05-07T14:05:06;7.47;;;6.72;;
17251;SDS011;8742;51.716;8.790;2023-05-07T14:07:34;8.30;;;6.80;;
17251;SDS011;8742;51.716;8.790;2023-05-07T14:10:01;9.13;;;6.97;;
17251;SDS011;8742;51.716;8.790;2023-05-07T14:12:28;10.68;;;7.30;;
17251;SDS011;8742;51.716;8.790;2023-05-07T14:14:54;9.10;;;7.25;;
17251;SDS011;8742;51.716;8.790;2023-05-07T14:17:21;11.45;;;7.43;;
17251;SDS011;8742;51.716;8.790;2023-05-07T14:19:51;15.18;;;7.30;;
17251;SDS011;8742;51.716;8.790;2023-05-07T14:22:19;8.38;;;7.10;;
17251;SDS011;8742;51.716;8.790;2023-05-07T14:24:46;8.02;;;6.68;;
17251;SDS011;8742;51.716;8.790;2023-05-07T14:27:13;11.77;;;7.47;;
17251;SDS011;8742;51.716;8.790;2023-05-07T14:29:40;7.53;;;6.78;;
17251;SDS011;8742;51.716;8.790;2023-05-07T14:32:07;9.18;;;6.80;;
17251;SDS011;8742;51.716;8.790;2023-05-07T14:34:34;8.10;;;7.07;;
17251;SDS011;8742;51.716;8.790;2023-05-07T14:37:02;9.70;;;8.13;;
17251;SDS011;8742;51.716;8.790;2023-05-07T14:39:29;9.93;;;6.82;;
17251;SDS011;8742;51.716;8.790;2023-05-07T14:41:56;10.27;;;7.70;;
17251;SDS011;8742;51.716;8.790;2023-05-07T14:44:23;8.27;;;6.93;;
17251;SDS011;8742;51.716;8.790;2023-05-07T14:46:50;11.50;;;7.97;;